This is the latest recevied weather packets stored in our database for station/object N4RCT. If no packets are shown the sender has not sent any weather packets the latest 10 day(s).
| Time | Temp. | Humidity | Pressure | Rain* | Wind** | Luminosity | Snow |
|---|---|---|---|---|---|---|---|
| 1777045353 | 23.33° C | 68% | 1013.8 hPa | 0 mm | - | 692 W/m² | - |
| 1777045048 | 23.89° C | 68% | 1013.9 hPa | 0 mm | - | 590 W/m² | - |
| 1777044744 | 24.44° C | 67% | 1013.8 hPa | 0 mm | - | 418 W/m² | - |
| 1777044441 | 23.33° C | 67% | 1013.7 hPa | 0 mm | - | 498 W/m² | - |
| 1777044141 | 23.89° C | 67% | 1013.7 hPa | 0 mm | - | 413 W/m² | - |
| 1777043838 | 23.89° C | 66% | 1013.7 hPa | 0 mm | - | 625 W/m² | - |
| 1777043534 | 23.33° C | 68% | 1013.7 hPa | 0 mm | - | 831 W/m² | - |
| 1777043231 | 22.78° C | 70% | 1013.6 hPa | 0 mm | - | 474 W/m² | - |
| 1777042926 | 23.33° C | 67% | 1013.9 hPa | 0 mm | - | 530 W/m² | - |
| 1777042622 | 22.78° C | 68% | 1013.9 hPa | 0 mm | - | 725 W/m² | - |
| 1777042317 | 23.89° C | 66% | 1013.8 hPa | 0 mm | - | 722 W/m² | - |
| 1777042013 | 22.78° C | 69% | 1013.9 hPa | 0 mm | - | 705 W/m² | - |
| 1777041710 | 22.78° C | 70% | 1014 hPa | 0 mm | - | 687 W/m² | - |
| 1777041406 | 23.33° C | 70% | 1013.9 hPa | 0 mm | - | 668 W/m² | - |
| 1777041104 | 22.22° C | 72% | 1013.7 hPa | 0 mm | - | 656 W/m² | - |
| 1777040799 | 22.78° C | 73% | 1013.8 hPa | 0 mm | - | 643 W/m² | - |
| 1777040493 | 22.22° C | 71% | 1013.8 hPa | 0 mm | - | 642 W/m² | - |
| 1777040189 | 21.67° C | 72% | 1013.7 hPa | 0 mm | - | 561 W/m² | - |
| 1777039885 | 20.56° C | 74% | 1013.9 hPa | 0 mm | - | 566 W/m² | - |
| 1777039580 | 20.56° C | 74% | 1013.8 hPa | 0 mm | - | 555 W/m² | - |
| 1777039276 | 20° C | 76% | 1013.8 hPa | 0 mm | - | 197 W/m² | - |
| 1777038975 | 19.44° C | 78% | 1014 hPa | 0 mm | - | 196 W/m² | - |
| 1777038672 | 18.89° C | 79% | 1014 hPa | 0 mm | - | 196 W/m² | - |
| 1777038367 | 18.89° C | 79% | 1013.9 hPa | 0 mm | - | 485 W/m² | - |
| 1777038062 | 18.33° C | 79% | 1013.9 hPa | 0 mm | - | 220 W/m² | - |
* Rain latest hour (hover to see other rain measurements)
** Current wind speed in m/s (hover to see current wind gust speed)